Time;durP1;ratioP1;P1;durP2;ratioP2;P2;SDS_P1;SDS_P2;PMS_P1;PMS_P2;Temp;Humidity;BMP_temperature;BMP_pressure;BME280_temperature;BME280_humidity;BME280_pressure;Samples;Min_cycle;Max_cycle;Signal;HPM_P1;HPM_P2
2022/08/03 00:01:23;;;;;;;3.20;2.90;;;18.60;99.90;;;;;;5052959;28;20532;-67
2022/08/03 00:03:49;;;;;;;3.17;2.70;;;18.60;99.90;;;;;;5052603;28;20841;-67
2022/08/03 00:06:16;;;;;;;3.80;3.10;;;18.60;99.90;;;;;;5052769;28;20472;-67
2022/08/03 00:08:44;;;;;;;2.93;2.43;;;18.50;99.90;;;;;;5052788;28;20548;-67
2022/08/03 00:11:11;;;;;;;2.67;2.47;;;18.50;99.90;;;;;;5052931;28;20476;-67
2022/08/03 00:13:38;;;;;;;2.60;2.40;;;18.40;99.90;;;;;;5052265;28;20483;-67
2022/08/03 00:16:05;;;;;;;2.80;2.60;;;18.40;99.90;;;;;;5052510;28;20861;-67
2022/08/03 00:18:32;;;;;;;3.07;2.83;;;18.40;99.90;;;;;;5052558;28;20521;-67
2022/08/03 00:20:58;;;;;;;3.50;2.90;;;18.50;99.90;;;;;;5052564;28;20491;-66
2022/08/03 00:23:25;;;;;;;2.63;2.40;;;18.40;99.90;;;;;;5051919;28;20463;-67
2022/08/03 00:25:53;;;;;;;4.10;2.70;;;18.40;99.90;;;;;;5052443;28;20476;-66
2022/08/03 00:28:20;;;;;;;2.63;2.43;;;18.40;99.90;;;;;;5052436;28;20960;-66
2022/08/03 00:30:47;;;;;;;2.37;2.13;;;18.30;99.90;;;;;;5052893;28;20460;-67
2022/08/03 00:33:13;;;;;;;2.93;2.63;;;18.30;99.90;;;;;;5052184;28;20525;-67
2022/08/03 00:35:40;;;;;;;2.50;2.30;;;18.30;99.90;;;;;;5051561;28;20556;-67
2022/08/03 00:38:06;;;;;;;2.67;2.47;;;18.30;99.90;;;;;;5052307;28;20467;-67
2022/08/03 00:40:34;;;;;;;2.80;2.60;;;18.20;99.90;;;;;;5052132;28;20861;-67
2022/08/03 00:43:03;;;;;;;2.80;2.40;;;18.20;99.90;;;;;;5051482;28;20522;-67
2022/08/03 00:45:32;;;;;;;2.30;2.10;;;18.20;99.90;;;;;;5051444;28;20460;-66
2022/08/03 00:48:00;;;;;;;2.67;2.47;;;18.10;99.90;;;;;;5052321;28;20468;-67
2022/08/03 00:50:29;;;;;;;2.90;2.60;;;18.10;99.90;;;;;;5052533;28;20460;-67
2022/08/03 00:52:59;;;;;;;3.23;2.90;;;18.10;99.90;;;;;;5051989;28;21013;-67
2022/08/03 00:55:26;;;;;;;2.87;2.67;;;18.10;99.90;;;;;;5051693;28;20488;-66
2022/08/03 00:57:53;;;;;;;3.17;2.60;;;18.00;99.90;;;;;;5051548;28;20514;-67
2022/08/03 01:00:23;;;;;;;2.87;2.57;;;18.00;99.90;;;;;;5052325;28;20578;-67
2022/08/03 01:02:50;;;;;;;3.53;2.60;;;18.00;99.90;;;;;;5051603;28;20468;-66
2022/08/03 01:05:17;;;;;;;3.10;2.80;;;18.00;99.90;;;;;;5051376;28;20463;-67
2022/08/03 01:07:56;;;;;;;2.70;2.50;;;18.00;99.90;;;;;;5051693;28;20464;-66
2022/08/03 01:10:32;;;;;;;3.27;2.97;;;18.00;99.90;;;;;;5051882;28;20463;-67
2022/08/03 01:13:07;;;;;;;2.83;2.63;;;18.00;99.90;;;;;;5051659;28;20464;-66
2022/08/03 01:15:40;;;;;;;2.73;2.53;;;18.00;99.90;;;;;;5050885;28;20507;-65
2022/08/03 01:18:13;;;;;;;2.97;2.67;;;17.90;99.90;;;;;;5051445;28;20951;-67
2022/08/03 01:20:45;;;;;;;2.63;2.43;;;17.90;99.90;;;;;;5051202;28;20459;-67
2022/08/03 01:23:37;;;;;;;2.97;2.77;;;17.90;99.90;;;;;;5051577;28;20837;-66
2022/08/03 01:26:13;;;;;;;2.77;2.57;;;17.90;99.90;;;;;;5050917;28;20491;-67
2022/08/03 01:28:56;;;;;;;3.30;3.00;;;17.80;99.90;;;;;;5051443;28;20464;-67
2022/08/03 01:31:29;;;;;;;3.17;2.90;;;17.80;99.90;;;;;;5051225;28;20652;-67
2022/08/03 01:34:00;;;;;;;2.60;2.40;;;17.80;99.90;;;;;;5050467;28;21019;-67
2022/08/03 01:36:33;;;;;;;2.87;2.60;;;17.80;99.90;;;;;;5050851;28;20491;-67
2022/08/03 01:39:02;;;;;;;2.53;2.10;;;17.80;99.90;;;;;;5050993;28;20464;-67
2022/08/03 01:41:33;;;;;;;3.20;2.90;;;17.80;99.90;;;;;;5051240;28;20459;-67
2022/08/03 01:44:03;;;;;;;2.90;2.70;;;17.80;99.90;;;;;;5050251;28;20463;-66
2022/08/03 01:46:32;;;;;;;5.73;3.07;;;17.80;99.90;;;;;;5050990;28;20480;-66
2022/08/03 01:49:00;;;;;;;3.50;2.93;;;17.70;99.90;;;;;;5050450;28;20468;-66
2022/08/03 01:51:28;;;;;;;3.70;3.40;;;17.70;99.90;;;;;;5051062;28;20468;-67
2022/08/03 01:53:56;;;;;;;3.73;3.33;;;17.70;99.90;;;;;;5049773;28;20467;-66
2022/08/03 01:56:26;;;;;;;4.57;3.17;;;17.70;99.90;;;;;;5050260;28;20867;-66
2022/08/03 01:58:54;;;;;;;2.97;2.70;;;17.70;99.90;;;;;;5050615;28;20959;-67
2022/08/03 02:01:22;;;;;;;3.53;3.23;;;17.70;99.90;;;;;;5050862;28;20455;-67
2022/08/03 02:03:52;;;;;;;2.87;2.67;;;17.60;99.90;;;;;;5050172;28;20456;-66
2022/08/03 02:06:21;;;;;;;4.20;2.70;;;17.70;99.90;;;;;;5050102;28;20480;-66
2022/08/03 02:08:50;;;;;;;3.13;2.83;;;17.60;99.90;;;;;;5049999;28;20471;-67
2022/08/03 02:11:17;;;;;;;8.50;3.77;;;17.60;99.90;;;;;;5050273;28;20464;-67
2022/08/03 02:13:47;;;;;;;3.00;2.80;;;17.60;99.90;;;;;;5050029;28;20460;-66
2022/08/03 02:16:14;;;;;;;4.70;3.40;;;17.60;99.90;;;;;;5050120;28;20487;-66
2022/08/03 02:18:42;;;;;;;3.37;3.07;;;17.60;99.90;;;;;;5050418;28;20963;-66
2022/08/03 02:21:11;;;;;;;3.53;3.20;;;17.60;99.90;;;;;;5050275;28;20483;-67
2022/08/03 02:23:40;;;;;;;3.37;3.07;;;17.60;99.90;;;;;;5050209;28;20464;-67
2022/08/03 02:26:11;;;;;;;3.97;3.30;;;17.60;99.90;;;;;;5050675;28;20503;-66
2022/08/03 02:28:45;;;;;;;3.40;3.10;;;17.50;99.90;;;;;;5050140;28;20481;-66
2022/08/03 02:31:16;;;;;;;4.10;3.00;;;17.50;99.90;;;;;;5050314;28;20984;-67
2022/08/03 02:33:44;;;;;;;3.57;3.27;;;17.50;99.90;;;;;;5049348;28;20517;-66
2022/08/03 02:36:14;;;;;;;3.20;2.97;;;17.50;99.90;;;;;;5050221;28;20903;-67
2022/08/03 02:38:43;;;;;;;3.13;2.93;;;17.50;99.90;;;;;;5049924;28;20471;-66
2022/08/03 02:41:17;;;;;;;2.93;2.67;;;17.40;99.90;;;;;;5050137;28;20464;-66
2022/08/03 02:43:48;;;;;;;3.60;3.30;;;17.40;99.90;;;;;;5049587;28;21205;-67
2022/08/03 02:46:19;;;;;;;3.40;3.10;;;17.40;99.90;;;;;;5050353;28;20510;-66
2022/08/03 02:48:47;;;;;;;3.57;3.27;;;17.40;99.90;;;;;;5050170;28;20491;-67
2022/08/03 02:51:16;;;;;;;2.93;2.73;;;17.40;99.90;;;;;;5050199;28;20810;-67
2022/08/03 02:53:45;;;;;;;3.93;3.10;;;17.40;99.90;;;;;;5049820;28;20502;-66
2022/08/03 02:56:13;;;;;;;3.77;3.37;;;17.40;99.90;;;;;;5049600;28;20495;-67
2022/08/03 02:58:42;;;;;;;4.03;3.63;;;17.30;99.90;;;;;;5050102;28;20462;-67
2022/08/03 03:01:10;;;;;;;3.60;3.17;;;17.30;99.90;;;;;;5049686;28;20519;-67
2022/08/03 03:03:38;;;;;;;3.60;3.30;;;17.30;99.90;;;;;;5049791;28;20879;-67
2022/08/03 03:06:05;;;;;;;3.73;3.30;;;17.30;99.90;;;;;;5050627;28;20484;-67
2022/08/03 03:08:34;;;;;;;3.70;3.40;;;17.30;99.90;;;;;;5053493;28;20472;-66
2022/08/03 03:11:01;;;;;;;4.20;3.27;;;17.30;99.90;;;;;;5053799;28;20466;-66
2022/08/03 03:13:30;;;;;;;3.37;2.87;;;17.20;99.90;;;;;;5053145;28;20499;-67
2022/08/03 03:15:59;;;;;;;4.00;2.80;;;17.20;99.90;;;;;;5053533;28;20515;-67
2022/08/03 03:18:28;;;;;;;3.23;2.93;;;17.20;99.90;;;;;;5053380;28;20869;-66
2022/08/03 03:20:56;;;;;;;3.50;3.20;;;17.20;99.90;;;;;;5053658;28;20470;-67
2022/08/03 03:23:24;;;;;;;3.40;3.10;;;17.20;99.90;;;;;;5053436;28;20510;-66
2022/08/03 03:25:54;;;;;;;3.20;2.90;;;17.20;99.90;;;;;;5054149;28;20476;-67
2022/08/03 03:28:22;;;;;;;3.03;2.67;;;17.10;99.90;;;;;;5054316;28;20558;-67
2022/08/03 03:30:49;;;;;;;4.53;3.50;;;17.10;99.90;;;;;;5139495;22;20500;-70
2022/08/03 03:33:16;;;;;;;4.10;3.70;;;17.10;99.90;;;;;;5033245;28;20457;-69
2022/08/03 03:35:45;;;;;;;3.33;3.10;;;17.10;99.90;;;;;;5032952;28;20489;-69
2022/08/03 03:38:12;;;;;;;3.47;3.17;;;17.10;99.90;;;;;;5033375;28;20468;-69
2022/08/03 03:40:39;;;;;;;3.57;3.20;;;17.00;99.90;;;;;;5033300;28;20453;-69
2022/08/03 03:43:09;;;;;;;3.10;2.90;;;17.00;99.90;;;;;;5033110;28;20616;-69
2022/08/03 03:45:36;;;;;;;7.80;4.40;;;17.00;99.90;;;;;;5032867;28;20465;-69
2022/08/03 03:48:05;;;;;;;3.57;3.00;;;17.00;99.90;;;;;;5033401;28;20468;-69
2022/08/03 03:50:34;;;;;;;3.60;3.30;;;17.00;99.90;;;;;;5034996;28;20457;-69
2022/08/03 03:53:01;;;;;;;4.40;3.23;;;17.00;99.90;;;;;;5034006;28;20464;-69
2022/08/03 03:55:28;;;;;;;3.37;3.00;;;16.90;99.90;;;;;;5032905;28;20461;-69
2022/08/03 03:57:55;;;;;;;3.30;3.00;;;16.90;99.90;;;;;;5032640;28;20497;-69
2022/08/03 04:00:23;;;;;;;4.17;3.10;;;16.90;99.90;;;;;;5033260;28;20461;-69
2022/08/03 04:02:49;;;;;;;3.30;3.00;;;16.90;99.90;;;;;;5032521;28;20952;-69
2022/08/03 04:11:02;;;;;;;3.40;3.10;;;16.80;99.90;;;;;;5031342;28;20444;-68
2022/08/03 04:13:31;;;;;;;3.60;3.20;;;16.80;99.90;;;;;;5032283;28;20467;-68
2022/08/03 04:16:00;;;;;;;3.40;2.90;;;16.80;99.90;;;;;;5033040;28;20492;-69
2022/08/03 04:18:30;;;;;;;3.40;3.10;;;16.90;99.90;;;;;;5032045;28;20461;-69
2022/08/03 04:21:02;;;;;;;3.90;3.50;;;16.80;99.90;;;;;;5044629;28;20539;-69
2022/08/03 04:23:32;;;;;;;3.60;3.10;;;16.80;99.90;;;;;;5047141;28;21364;-69
2022/08/03 04:26:03;;;;;;;3.57;3.27;;;16.80;99.90;;;;;;5038193;28;20523;-68
2022/08/03 04:28:32;;;;;;;3.33;3.13;;;16.80;99.90;;;;;;5037284;28;20556;-68
2022/08/03 04:31:03;;;;;;;4.10;3.00;;;16.80;99.90;;;;;;5030221;28;20457;-69
2022/08/03 04:33:32;;;;;;;4.67;3.47;;;16.80;99.90;;;;;;5029659;28;20465;-69
2022/08/03 04:36:00;;;;;;;3.70;3.30;;;16.80;99.90;;;;;;5031678;28;20493;-69
2022/08/03 04:38:29;;;;;;;4.00;3.47;;;16.80;99.90;;;;;;5032482;28;20464;-69
2022/08/03 04:40:56;;;;;;;4.70;3.20;;;16.90;99.90;;;;;;5032678;28;21067;-69
2022/08/03 04:43:25;;;;;;;3.87;3.57;;;16.90;99.90;;;;;;5034453;28;20452;-68
2022/08/03 04:45:54;;;;;;;3.93;3.50;;;17.00;99.90;;;;;;5043005;28;20487;-69
2022/08/03 04:48:22;;;;;;;4.07;3.77;;;16.90;99.90;;;;;;5041383;28;20527;-69
2022/08/03 04:50:49;;;;;;;7.20;3.80;;;17.00;99.90;;;;;;5043934;28;20460;-69
2022/08/03 04:53:16;;;;;;;3.67;3.37;;;17.00;99.90;;;;;;5051860;28;20460;-68
2022/08/03 04:55:43;;;;;;;4.27;3.87;;;17.10;99.90;;;;;;5052196;28;20575;-69
2022/08/03 04:58:11;;;;;;;4.90;3.30;;;17.10;99.90;;;;;;5052138;28;20522;-68
2022/08/03 05:00:38;;;;;;;3.50;3.20;;;17.10;99.90;;;;;;5051960;28;20462;-69
2022/08/03 05:03:04;;;;;;;3.30;3.00;;;17.10;99.90;;;;;;5052086;28;20958;-67
2022/08/03 05:05:33;;;;;;;5.17;3.80;;;17.10;99.90;;;;;;5051266;28;20470;-69
2022/08/03 05:07:59;;;;;;;3.60;3.30;;;17.20;99.90;;;;;;5051906;28;20471;-69
2022/08/03 05:10:26;;;;;;;3.73;3.40;;;17.30;99.90;;;;;;5051728;28;20464;-69
2022/08/03 05:12:53;;;;;;;6.83;3.90;;;17.30;99.90;;;;;;5051682;28;20955;-69
2022/08/03 05:15:20;;;;;;;4.60;3.93;;;17.30;99.90;;;;;;5050812;28;20453;-69
2022/08/03 05:17:47;;;;;;;3.73;3.30;;;17.40;99.90;;;;;;5051903;28;20458;-68
2022/08/03 05:20:14;;;;;;;3.67;2.97;;;17.40;99.90;;;;;;5051418;28;20562;-69
2022/08/03 05:22:42;;;;;;;4.20;3.80;;;17.50;99.90;;;;;;5051710;28;20467;-69
2022/08/03 05:25:09;;;;;;;3.87;3.43;;;17.50;99.90;;;;;;5051026;28;20479;-67
2022/08/03 05:27:36;;;;;;;4.70;3.50;;;17.60;99.90;;;;;;5050838;28;20484;-68
2022/08/03 05:30:03;;;;;;;4.03;3.60;;;17.70;99.90;;;;;;5051109;28;20456;-69
2022/08/03 05:32:30;;;;;;;3.90;3.50;;;17.70;99.90;;;;;;5051245;28;20461;-70
2022/08/03 05:34:57;;;;;;;3.40;3.10;;;17.80;99.90;;;;;;5051110;28;20510;-69
2022/08/03 05:37:23;;;;;;;3.60;3.30;;;17.90;99.90;;;;;;5050988;28;20472;-69
2022/08/03 05:39:51;;;;;;;4.30;3.60;;;18.00;99.90;;;;;;5050999;28;20464;-69
2022/08/03 05:42:18;;;;;;;4.40;3.63;;;18.10;99.90;;;;;;5051015;28;20951;-69
2022/08/03 05:44:45;;;;;;;3.40;3.03;;;18.10;99.90;;;;;;5050394;28;20900;-70
2022/08/03 05:47:11;;;;;;;3.37;3.07;;;18.20;99.90;;;;;;5050921;28;20492;-69
2022/08/03 05:49:38;;;;;;;3.83;3.47;;;18.30;99.90;;;;;;5050829;28;20460;-69
2022/08/03 05:52:05;;;;;;;3.63;3.33;;;18.40;99.90;;;;;;5051213;28;20456;-69
2022/08/03 05:54:31;;;;;;;4.20;3.80;;;18.50;99.90;;;;;;5050231;28;20460;-68
2022/08/03 05:56:59;;;;;;;3.57;3.27;;;18.60;99.90;;;;;;5050688;28;20484;-69
2022/08/03 05:59:26;;;;;;;4.43;4.03;;;18.70;99.90;;;;;;5050617;28;20821;-69
2022/08/03 06:01:53;;;;;;;3.70;3.40;;;18.80;99.90;;;;;;5050844;28;20467;-69
2022/08/03 06:04:20;;;;;;;4.90;3.57;;;18.90;99.90;;;;;;5050334;28;20873;-69
2022/08/03 06:06:49;;;;;;;4.30;3.90;;;19.00;99.90;;;;;;5050737;28;20491;-68
2022/08/03 06:09:16;;;;;;;3.73;3.43;;;19.10;99.90;;;;;;5050566;28;20479;-69
2022/08/03 06:11:42;;;;;;;3.50;3.20;;;19.30;99.90;;;;;;5050790;28;20478;-69
2022/08/03 06:14:10;;;;;;;3.00;2.77;;;19.40;99.90;;;;;;5049785;28;20465;-69
2022/08/03 06:16:37;;;;;;;3.43;2.90;;;19.50;99.90;;;;;;5050548;28;20483;-69
2022/08/03 06:19:04;;;;;;;3.67;3.33;;;19.70;99.90;;;;;;5050608;28;20464;-69
2022/08/03 06:21:30;;;;;;;3.60;3.30;;;19.80;99.90;;;;;;5050597;28;20516;-69
2022/08/03 06:23:57;;;;;;;3.87;2.53;;;19.90;99.90;;;;;;5051797;28;20546;-69
2022/08/03 06:26:25;;;;;;;3.60;3.00;;;20.10;99.90;;;;;;5051621;28;20549;-68
2022/08/03 06:28:51;;;;;;;2.87;2.53;;;20.20;99.90;;;;;;5050436;28;20468;-69
2022/08/03 06:31:20;;;;;;;2.83;2.50;;;20.40;99.90;;;;;;5050174;28;20880;-69
2022/08/03 06:33:46;;;;;;;3.97;3.07;;;20.60;99.90;;;;;;5050095;28;20456;-69
2022/08/03 06:36:13;;;;;;;2.67;2.47;;;20.80;99.90;;;;;;5050184;28;20483;-69
2022/08/03 06:38:40;;;;;;;3.17;2.57;;;20.90;99.90;;;;;;5050460;28;20960;-69
2022/08/03 06:41:06;;;;;;;3.37;2.67;;;21.00;99.90;;;;;;5034959;28;20738;-69
2022/08/03 06:43:36;;;;;;;3.30;2.43;;;21.10;99.90;;;;;;5029016;28;20518;-69
2022/08/03 06:46:03;;;;;;;3.40;2.87;;;21.20;99.90;;;;;;5029736;28;20480;-69
2022/08/03 06:48:31;;;;;;;2.80;2.50;;;21.40;99.90;;;;;;5028513;28;20497;-69
2022/08/03 06:50:58;;;;;;;2.83;2.63;;;21.60;99.90;;;;;;5030022;28;20991;-69
2022/08/03 06:53:25;;;;;;;2.90;2.70;;;21.70;99.90;;;;;;5028783;28;21217;-69
2022/08/03 06:55:51;;;;;;;2.70;2.50;;;21.80;99.90;;;;;;5029482;28;20515;-70
2022/08/03 06:58:18;;;;;;;2.50;2.30;;;21.90;99.90;;;;;;5025422;28;20481;-69
2022/08/03 07:00:45;;;;;;;2.70;2.50;;;22.10;99.90;;;;;;5029580;28;20474;-69
2022/08/03 07:03:12;;;;;;;2.77;2.50;;;22.20;99.90;;;;;;5029526;28;20488;-68
2022/08/03 07:05:41;;;;;;;3.03;2.40;;;22.30;99.90;;;;;;5028096;28;20853;-69
2022/08/03 07:08:09;;;;;;;2.60;2.40;;;22.40;99.90;;;;;;5028363;28;20595;-70
2022/08/03 07:10:36;;;;;;;3.67;2.27;;;22.50;99.90;;;;;;5029227;28;20482;-69
2022/08/03 07:13:02;;;;;;;2.53;2.33;;;22.60;99.90;;;;;;5029004;28;20469;-70
2022/08/03 07:15:29;;;;;;;2.80;2.60;;;22.70;99.90;;;;;;5028507;28;21367;-69
2022/08/03 07:17:56;;;;;;;2.50;2.23;;;22.80;99.90;;;;;;5029445;28;20542;-70
2022/08/03 07:20:24;;;;;;;2.60;2.40;;;22.90;99.90;;;;;;5028495;28;20878;-69
2022/08/03 07:22:52;;;;;;;2.30;2.10;;;23.00;99.90;;;;;;5029644;28;20461;-68
2022/08/03 07:25:20;;;;;;;2.30;2.10;;;23.10;99.90;;;;;;5038062;28;20462;-68
2022/08/03 07:27:48;;;;;;;2.37;2.10;;;23.20;99.90;;;;;;5048674;28;20525;-68
2022/08/03 07:30:16;;;;;;;2.03;1.70;;;23.20;99.90;;;;;;5048636;28;20459;-68
2022/08/03 07:32:44;;;;;;;2.30;2.10;;;23.30;99.90;;;;;;5048421;28;20474;-68
2022/08/03 07:35:12;;;;;;;2.10;1.90;;;23.40;99.90;;;;;;5048287;28;20467;-68
2022/08/03 07:37:39;;;;;;;2.90;2.33;;;23.50;99.90;;;;;;5048606;28;20896;-68
2022/08/03 07:40:08;;;;;;;2.87;2.13;;;23.50;99.90;;;;;;5048537;28;20529;-67
2022/08/03 07:42:36;;;;;;;2.70;2.30;;;23.60;99.90;;;;;;5048346;28;21175;-67
2022/08/03 07:45:04;;;;;;;2.40;2.20;;;23.60;99.90;;;;;;5048122;28;20476;-67
2022/08/03 07:47:33;;;;;;;2.23;2.03;;;23.70;99.90;;;;;;5048110;28;20494;-68
2022/08/03 07:50:00;;;;;;;1.93;1.83;;;23.80;99.90;;;;;;5048744;28;20500;-68
2022/08/03 07:55:13;;;;;;;2.10;1.90;;;23.90;99.90;;;;;;5051374;28;20438;-68
2022/08/03 07:57:40;;;;;;;1.90;1.63;;;24.00;99.90;;;;;;5053793;28;20841;-67
2022/08/03 08:00:13;;;;;;;1.63;1.53;;;24.20;99.90;;;;;;5053018;28;20469;-67
2022/08/03 08:02:40;;;;;;;2.90;1.80;;;24.30;99.90;;;;;;5053048;28;20473;-68
2022/08/03 08:05:09;;;;;;;1.60;1.50;;;24.40;99.90;;;;;;5052707;28;20473;-68
2022/08/03 08:07:36;;;;;;;1.63;1.53;;;24.40;99.90;;;;;;5051644;28;20499;-67
2022/08/03 08:10:04;;;;;;;2.03;1.50;;;24.50;99.90;;;;;;5051399;28;20470;-68
2022/08/03 08:12:32;;;;;;;5.43;1.90;;;24.60;99.90;;;;;;5047879;28;20946;-68
2022/08/03 08:14:59;;;;;;;1.90;1.67;;;24.60;99.90;;;;;;5071144;28;20465;-68
2022/08/03 08:17:27;;;;;;;1.83;1.73;;;24.70;99.90;;;;;;5050290;28;20485;-67
2022/08/03 08:19:53;;;;;;;1.60;1.47;;;24.90;99.90;;;;;;5051975;28;20954;-68
2022/08/03 08:22:20;;;;;;;2.10;1.90;;;24.90;99.90;;;;;;5052208;28;20546;-68
2022/08/03 08:24:48;;;;;;;1.43;1.33;;;25.00;99.90;;;;;;5051557;28;20474;-68
2022/08/03 08:27:14;;;;;;;1.73;1.63;;;25.10;99.90;;;;;;5049836;28;20494;-67
2022/08/03 08:29:42;;;;;;;2.60;1.90;;;25.20;99.90;;;;;;5049768;28;20470;-66
2022/08/03 08:32:10;;;;;;;1.53;1.43;;;25.20;99.90;;;;;;5050981;28;20479;-67
2022/08/03 08:34:37;;;;;;;1.80;1.70;;;25.20;99.90;;;;;;5051118;28;20529;-67
2022/08/03 08:37:03;;;;;;;2.73;1.50;;;25.30;99.90;;;;;;5051568;28;20559;-67
2022/08/03 08:39:30;;;;;;;1.73;1.63;;;25.40;99.90;;;;;;5050638;28;20510;-67
2022/08/03 08:41:57;;;;;;;1.63;1.53;;;25.50;99.90;;;;;;5051552;28;20470;-68
2022/08/03 08:44:23;;;;;;;2.43;1.70;;;25.70;99.90;;;;;;5049967;28;20470;-67
2022/08/03 08:46:53;;;;;;;1.60;1.50;;;25.80;99.90;;;;;;5050942;28;20480;-66
2022/08/03 08:49:26;;;;;;;1.83;1.73;;;25.90;99.90;;;;;;5050838;28;20835;-68
2022/08/03 08:51:56;;;;;;;1.70;1.60;;;26.00;99.90;;;;;;5051076;28;20543;-68
2022/08/03 08:54:23;;;;;;;1.60;1.40;;;26.10;99.90;;;;;;5050140;28;20475;-67
2022/08/03 08:56:51;;;;;;;1.80;1.70;;;26.20;99.90;;;;;;5048691;28;20818;-68
2022/08/03 08:59:19;;;;;;;1.60;1.50;;;26.30;99.90;;;;;;5045637;28;20490;-68
2022/08/03 09:01:46;;;;;;;2.17;1.60;;;26.40;99.90;;;;;;5037144;28;20457;-67
2022/08/03 09:04:14;;;;;;;1.70;1.60;;;26.50;99.90;;;;;;5030071;28;20533;-67
2022/08/03 09:06:41;;;;;;;1.70;1.60;;;26.70;99.90;;;;;;5031379;28;20476;-67
2022/08/03 09:09:08;;;;;;;2.10;1.70;;;26.80;99.90;;;;;;5030007;28;20496;-66
2022/08/03 09:11:34;;;;;;;1.80;1.63;;;26.90;99.90;;;;;;5030781;28;20522;-67
2022/08/03 09:14:01;;;;;;;2.10;1.90;;;27.10;99.90;;;;;;5030624;28;20501;-68
2022/08/03 09:16:28;;;;;;;1.60;1.50;;;27.20;99.90;;;;;;5030217;28;20539;-68
2022/08/03 09:18:55;;;;;;;2.40;1.70;;;27.30;99.90;;;;;;5030737;28;20472;-67
2022/08/03 09:21:25;;;;;;;1.70;1.60;;;27.40;99.90;;;;;;5028402;28;20571;-68
2022/08/03 09:23:54;;;;;;;1.87;1.77;;;27.50;99.90;;;;;;5030813;28;20551;-67
2022/08/03 09:26:23;;;;;;;2.23;2.00;;;27.60;99.90;;;;;;5050687;28;20476;-67
2022/08/03 09:28:57;;;;;;;2.17;1.97;;;27.70;99.90;;;;;;5049998;28;20578;-67
2022/08/03 09:31:31;;;;;;;1.70;1.60;;;27.70;99.80;;;;;;5050208;28;20464;-67
2022/08/03 09:34:00;;;;;;;2.90;1.73;;;27.80;99.90;;;;;;5043255;28;20487;-68
2022/08/03 09:36:39;;;;;;;2.40;2.20;;;27.90;99.90;;;;;;5042294;28;20484;-67
2022/08/03 09:39:09;;;;;;;1.80;1.70;;;28.00;99.90;;;;;;5048636;28;20812;-66
2022/08/03 09:41:38;;;;;;;2.20;2.03;;;28.20;99.90;;;;;;5030205;28;20468;-67
2022/08/03 09:44:05;;;;;;;2.03;1.50;;;28.30;99.90;;;;;;5029826;28;20677;-67
2022/08/03 09:46:32;;;;;;;2.50;1.67;;;28.40;99.60;;;;;;5029403;28;20539;-68
2022/08/03 09:49:12;;;;;;;3.20;1.90;;;28.50;98.90;;;;;;5029976;28;20489;-67
2022/08/03 09:51:41;;;;;;;1.70;1.60;;;28.50;98.90;;;;;;5030345;28;20535;-67
2022/08/03 09:54:08;;;;;;;2.17;1.97;;;28.60;99.80;;;;;;5029740;28;20503;-68
2022/08/03 09:56:40;;;;;;;2.63;2.03;;;28.70;99.90;;;;;;5029716;28;20547;-66
2022/08/03 09:59:07;;;;;;;1.93;1.83;;;28.80;99.00;;;;;;5029273;28;20465;-68
2022/08/03 10:01:34;;;;;;;1.63;1.53;;;28.90;99.30;;;;;;5029527;28;21259;-67
2022/08/03 10:04:01;;;;;;;2.50;1.83;;;29.00;99.10;;;;;;5029551;28;20472;-67
2022/08/03 10:06:28;;;;;;;2.07;1.70;;;29.10;97.00;;;;;;5029888;28;20485;-66
2022/08/03 10:09:08;;;;;;;2.13;1.93;;;29.20;96.90;;;;;;5029341;28;20480;-68
2022/08/03 10:11:35;;;;;;;2.20;1.97;;;29.30;97.90;;;;;;5029194;28;20472;-67
2022/08/03 10:14:04;;;;;;;2.07;1.77;;;29.40;98.60;;;;;;5029161;28;20465;-68
2022/08/03 10:16:34;;;;;;;2.20;1.67;;;29.60;98.60;;;;;;5028685;28;20527;-67
2022/08/03 10:19:01;;;;;;;1.80;1.70;;;29.60;98.00;;;;;;5030360;28;20457;-67
2022/08/03 10:21:32;;;;;;;1.97;1.80;;;29.70;97.60;;;;;;5029742;28;20465;-67
2022/08/03 10:23:59;;;;;;;2.00;1.90;;;29.80;97.10;;;;;;5027327;28;20530;-67
2022/08/03 10:26:30;;;;;;;1.87;1.60;;;29.90;96.20;;;;;;5029551;28;20477;-68
2022/08/03 10:29:02;;;;;;;3.30;2.03;;;30.00;97.00;;;;;;5029167;28;20499;-67
2022/08/03 10:31:39;;;;;;;1.97;1.80;;;30.10;97.10;;;;;;5029792;28;20465;-68
2022/08/03 10:34:14;;;;;;;1.70;1.60;;;30.10;96.80;;;;;;5028410;28;20544;-68
2022/08/03 10:36:43;;;;;;;1.50;1.40;;;30.20;96.70;;;;;;5029430;28;20487;-68
2022/08/03 10:39:12;;;;;;;1.70;1.60;;;30.30;96.70;;;;;;5029466;28;20511;-67
2022/08/03 10:41:43;;;;;;;2.00;1.90;;;30.40;96.10;;;;;;5028385;28;20468;-68
2022/08/03 10:44:14;;;;;;;1.83;1.73;;;30.50;95.30;;;;;;5029145;28;20493;-66
2022/08/03 10:46:42;;;;;;;2.10;1.90;;;30.50;94.90;;;;;;5028976;28;20575;-67
2022/08/03 10:49:12;;;;;;;1.83;1.70;;;30.40;95.10;;;;;;5028991;28;20492;-67
2022/08/03 10:51:39;;;;;;;1.57;1.47;;;30.40;95.70;;;;;;5029491;28;20476;-66
2022/08/03 10:54:05;;;;;;;2.70;1.70;;;30.50;95.50;;;;;;5029037;28;21014;-68
2022/08/03 10:59:57;;;;;;;1.90;1.70;;;30.50;95.20;;;;;;5028694;28;20514;-67
2022/08/03 11:03:03;;;;;;;2.07;1.97;;;30.50;94.70;;;;;;5029424;28;20835;-67
2022/08/03 11:05:31;;;;;;;2.00;1.90;;;30.60;96.50;;;;;;5027772;28;20472;-68
2022/08/03 11:08:17;;;;;;;2.07;1.87;;;30.80;96.70;;;;;;5034144;28;20489;-67
2022/08/03 11:10:45;;;;;;;2.53;2.33;;;30.90;96.70;;;;;;5034252;28;20464;-68
2022/08/03 11:13:16;;;;;;;1.90;1.80;;;31.10;96.10;;;;;;5031472;28;20468;-68
2022/08/03 11:15:45;;;;;;;2.13;1.97;;;31.20;96.00;;;;;;5028883;28;20492;-67
2022/08/03 11:18:13;;;;;;;2.50;2.07;;;31.30;94.80;;;;;;5029189;28;20468;-67
2022/08/03 11:20:47;;;;;;;1.83;1.63;;;31.40;95.00;;;;;;5027104;28;20472;-67
2022/08/03 11:23:15;;;;;;;1.90;1.80;;;31.40;95.00;;;;;;5028523;28;20472;-68
2022/08/03 11:26:16;;;;;;;2.57;1.77;;;31.40;94.40;;;;;;5028384;28;20833;-68
2022/08/03 11:28:45;;;;;;;2.03;1.83;;;31.40;95.60;;;;;;5031685;28;20503;-67
2022/08/03 11:31:46;;;;;;;2.00;1.90;;;31.40;94.80;;;;;;5032700;28;20501;-68
2022/08/03 11:34:15;;;;;;;2.30;2.10;;;31.50;94.00;;;;;;5032159;28;20464;-68
2022/08/03 11:37:20;;;;;;;1.83;1.73;;;31.50;94.70;;;;;;5032175;28;20542;-68
2022/08/03 11:39:49;;;;;;;1.63;1.53;;;31.60;95.50;;;;;;5032396;28;20543;-67
2022/08/03 11:42:46;;;;;;;2.10;2.00;;;31.70;95.90;;;;;;5032601;28;21145;-68
2022/08/03 11:45:15;;;;;;;1.97;1.83;;;31.80;92.90;;;;;;4970744;28;21114;-67
2022/08/03 11:47:43;;;;;;;1.73;1.63;;;31.60;92.60;;;;;;5018643;28;20558;-67
2022/08/03 11:50:10;;;;;;;1.80;1.63;;;31.50;94.60;;;;;;5036233;28;20488;-68
2022/08/03 11:52:40;;;;;;;2.00;1.80;;;31.60;95.00;;;;;;5052660;28;20535;-68
2022/08/03 11:55:13;;;;;;;1.90;1.70;;;31.70;94.60;;;;;;5049843;28;20489;-66
2022/08/03 11:57:40;;;;;;;2.10;1.90;;;31.80;93.30;;;;;;5041214;28;20573;-67
2022/08/03 12:00:29;;;;;;;2.40;2.20;;;31.90;93.30;;;;;;5050564;28;20849;-67
2022/08/03 12:02:59;;;;;;;1.77;1.60;;;31.90;94.70;;;;;;5050423;28;20471;-67
2022/08/03 12:05:46;;;;;;;2.00;1.80;;;32.00;94.90;;;;;;5050762;28;21035;-67
2022/08/03 12:08:15;;;;;;;2.23;2.03;;;32.20;92.50;;;;;;5051224;28;20471;-67
2022/08/03 12:10:48;;;;;;;2.00;1.80;;;32.30;93.30;;;;;;5052066;28;20464;-67
2022/08/03 12:13:17;;;;;;;3.43;1.87;;;32.30;92.90;;;;;;5051195;28;20496;-68
2022/08/03 12:15:50;;;;;;;2.10;2.00;;;32.40;91.60;;;;;;5051515;28;20565;-67
2022/08/03 12:18:19;;;;;;;1.50;1.40;;;32.20;91.90;;;;;;5033406;28;20475;-67
2022/08/03 12:20:46;;;;;;;2.10;1.90;;;32.10;93.50;;;;;;5029072;28;20473;-68
2022/08/03 12:23:13;;;;;;;1.50;1.40;;;32.20;93.00;;;;;;5031473;28;20469;-66
2022/08/03 12:25:41;;;;;;;1.80;1.70;;;32.20;91.60;;;;;;5029310;28;20475;-67
2022/08/03 12:28:12;;;;;;;2.10;2.00;;;32.30;93.70;;;;;;5030621;28;20468;-68
2022/08/03 12:30:39;;;;;;;2.10;1.90;;;32.40;93.80;;;;;;5031423;28;20473;-68
2022/08/03 12:33:19;;;;;;;3.30;1.87;;;32.40;91.00;;;;;;5030376;28;20475;-68
2022/08/03 12:35:48;;;;;;;1.70;1.60;;;32.50;93.00;;;;;;5030283;28;20572;-68
2022/08/03 12:38:21;;;;;;;2.80;1.87;;;32.50;91.60;;;;;;5029950;28;20474;-67
2022/08/03 12:40:56;;;;;;;2.00;1.90;;;32.40;90.60;;;;;;5030678;28;20566;-66
2022/08/03 12:43:23;;;;;;;1.93;1.63;;;32.30;89.20;;;;;;5029633;28;20880;-68
2022/08/03 12:45:50;;;;;;;2.00;1.90;;;32.20;92.20;;;;;;5030555;28;20481;-66
2022/08/03 12:48:18;;;;;;;2.03;1.57;;;32.10;88.80;;;;;;5030106;28;20479;-67
2022/08/03 12:50:44;;;;;;;1.97;1.70;;;32.00;90.30;;;;;;5030495;28;20627;-67
2022/08/03 12:53:11;;;;;;;2.10;1.90;;;31.90;89.90;;;;;;5029963;28;20465;-68
2022/08/03 12:55:38;;;;;;;1.83;1.73;;;31.90;90.20;;;;;;5029905;28;20476;-68
2022/08/03 12:58:06;;;;;;;3.20;1.90;;;31.90;88.50;;;;;;5029906;28;20523;-70
2022/08/03 13:00:33;;;;;;;1.87;1.67;;;31.90;88.40;;;;;;5029964;28;20881;-67
2022/08/03 13:03:02;;;;;;;1.80;1.70;;;31.90;90.90;;;;;;5030566;28;20886;-68
2022/08/03 13:05:31;;;;;;;1.83;1.73;;;32.10;91.20;;;;;;5028486;28;20473;-66
2022/08/03 13:07:58;;;;;;;2.40;1.80;;;32.40;90.00;;;;;;5026561;28;20515;-67
2022/08/03 13:10:30;;;;;;;1.93;1.80;;;32.40;88.10;;;;;;5030019;28;20489;-66